Time;durP1;ratioP1;P1;durP2;ratioP2;P2;SDS_P1;SDS_P2;PMS_P1;PMS_P2;Temp;Humidity;BMP_temperature;BMP_pressure;BME280_temperature;BME280_humidity;BME280_pressure;Samples;Min_cycle;Max_cycle;Signal;HPM_P1;HPM_P2
2022/01/10 00:00:52;;;;;;;41.47;21.73;;;;;;;;;;5033371;28;20625;-70
2022/01/10 00:03:22;;;;;;;32.20;18.10;;;;;;;;;;5033746;28;20652;-70
2022/01/10 00:05:50;;;;;;;28.07;18.00;;;;;;;;;;5033782;28;20219;-68
2022/01/10 00:08:17;;;;;;;35.43;19.43;;;;;;;;;;5033776;28;20213;-69
2022/01/10 00:10:45;;;;;;;27.33;17.57;;;;;;;;;;5032552;28;20248;-68
2022/01/10 00:13:13;;;;;;;27.03;17.40;;;;;;;;;;5033503;28;20220;-68
2022/01/10 00:15:40;;;;;;;29.80;17.07;;;;;;;;;;5033655;28;20291;-68
2022/01/10 00:18:08;;;;;;;31.47;19.53;;;;;;;;;;5033618;28;20468;-69
2022/01/10 00:20:35;;;;;;;30.07;18.23;;;;;;;;;;5033755;28;20234;-69
2022/01/10 00:23:03;;;;;;;31.17;18.73;;;;;;;;;;5033430;28;20684;-69
2022/01/10 00:25:31;;;;;;;34.33;19.63;;;;;;;;;;5033716;28;20208;-69
2022/01/10 00:27:58;;;;;;;32.93;21.13;;;;;;;;;;5033689;28;20219;-68
2022/01/10 00:30:25;;;;;;;28.40;16.83;;;;;;;;;;5032395;28;20699;-69
2022/01/10 00:32:53;;;;;;;30.47;18.67;;;;;;;;;;5036488;28;20212;-69
2022/01/10 00:35:20;;;;;;;31.40;18.23;;;;;;;;;;5037220;28;20612;-68
2022/01/10 00:37:49;;;;;;;27.93;16.97;;;;;;;;;;5037512;28;20208;-68
2022/01/10 00:40:17;;;;;;;24.33;15.97;;;;;;;;;;5037550;28;20216;-69
2022/01/10 00:42:52;;;;;;;23.07;14.07;;;;;;;;;;5020292;28;20217;-69
2022/01/10 00:45:25;;;;;;;22.30;13.43;;;;;;;;;;5037480;28;20224;-68
2022/01/10 00:47:57;;;;;;;23.57;14.17;;;;;;;;;;5036015;28;20659;-69
2022/01/10 00:50:27;;;;;;;21.87;13.27;;;;;;;;;;5035874;28;20641;-69
2022/01/10 00:52:57;;;;;;;19.07;12.43;;;;;;;;;;5037292;28;20212;-69
2022/01/10 00:55:25;;;;;;;44.50;19.73;;;;;;;;;;5037188;28;20221;-69
2022/01/10 00:57:52;;;;;;;35.00;17.00;;;;;;;;;;5036137;28;20212;-69
2022/01/10 01:00:20;;;;;;;28.17;14.93;;;;;;;;;;5035843;28;20220;-69
2022/01/10 01:02:47;;;;;;;25.37;14.10;;;;;;;;;;5035716;28;20232;-69
2022/01/10 01:05:18;;;;;;;27.97;16.37;;;;;;;;;;5037001;28;20219;-70
2022/01/10 01:07:45;;;;;;;47.60;19.27;;;;;;;;;;5037121;28;20263;-69
2022/01/10 01:13:01;;;;;;;17.97;11.13;;;;;;;;;;5035814;28;20219;-69
2022/01/10 01:15:33;;;;;;;16.67;11.27;;;;;;;;;;5036792;28;20251;-70
2022/01/10 01:25:58;;;;;;;12.97;9.63;;;;;;;;;;5035276;28;20267;-69
2022/01/10 01:28:26;;;;;;;13.47;9.33;;;;;;;;;;5035377;28;20660;-69
2022/01/10 01:30:54;;;;;;;14.20;10.60;;;;;;;;;;5035391;28;20275;-69
2022/01/10 01:33:23;;;;;;;13.67;10.13;;;;;;;;;;5036391;28;20205;-69
2022/01/10 01:35:52;;;;;;;17.33;11.73;;;;;;;;;;5035089;28;20550;-69
2022/01/10 01:38:20;;;;;;;16.27;10.77;;;;;;;;;;5035092;28;20299;-69
2022/01/10 01:40:57;;;;;;;20.10;12.03;;;;;;;;;;5036558;28;20218;-69
2022/01/10 01:43:25;;;;;;;29.10;13.97;;;;;;;;;;5035732;28;20233;-69
2022/01/10 01:45:52;;;;;;;25.67;13.90;;;;;;;;;;5036430;28;20216;-69
2022/01/10 01:48:21;;;;;;;16.83;10.93;;;;;;;;;;5035051;28;20219;-68
2022/01/10 01:50:48;;;;;;;15.37;10.67;;;;;;;;;;5035004;28;20221;-68
2022/01/10 01:53:16;;;;;;;14.33;9.67;;;;;;;;;;5034967;28;20244;-69
2022/01/10 01:55:44;;;;;;;12.93;9.57;;;;;;;;;;5035949;28;20223;-69
2022/01/10 01:58:12;;;;;;;24.97;14.70;;;;;;;;;;5034802;28;20208;-68
2022/01/10 02:00:40;;;;;;;12.77;8.87;;;;;;;;;;5034828;28;20220;-69
2022/01/10 02:03:08;;;;;;;15.90;9.80;;;;;;;;;;5036108;28;20208;-69
2022/01/10 02:05:35;;;;;;;13.67;9.70;;;;;;;;;;5035869;28;20216;-69
2022/01/10 02:08:03;;;;;;;15.10;10.77;;;;;;;;;;5036027;28;20216;-69
2022/01/10 02:10:30;;;;;;;17.77;11.53;;;;;;;;;;5034445;28;20239;-69
2022/01/10 02:12:58;;;;;;;18.67;11.57;;;;;;;;;;5034760;28;20213;-68
2022/01/10 02:18:17;;;;;;;15.33;10.57;;;;;;;;;;5034652;28;20209;-69
2022/01/10 02:20:49;;;;;;;16.77;11.50;;;;;;;;;;5034642;28;20201;-69
2022/01/10 02:23:18;;;;;;;18.40;11.23;;;;;;;;;;5034463;28;20216;-69
2022/01/10 02:25:54;;;;;;;21.93;13.40;;;;;;;;;;5019041;28;20200;-69
2022/01/10 02:28:26;;;;;;;25.43;15.27;;;;;;;;;;5018367;28;20537;-68
2022/01/10 02:30:57;;;;;;;25.20;14.43;;;;;;;;;;5034451;28;20212;-69
2022/01/10 02:33:28;;;;;;;27.00;14.10;;;;;;;;;;5034139;28;20201;-68
2022/01/10 02:36:24;;;;;;;21.67;13.10;;;;;;;;;;5034367;28;20200;-68
2022/01/10 02:38:50;;;;;;;19.23;12.67;;;;;;;;;;5033779;28;20278;-68
2022/01/10 02:41:20;;;;;;;17.73;12.13;;;;;;;;;;5033783;28;20320;-68
2022/01/10 02:43:48;;;;;;;16.43;10.33;;;;;;;;;;5033656;28;20213;-68
2022/01/10 02:46:17;;;;;;;15.43;10.37;;;;;;;;;;5034000;28;20664;-69
2022/01/10 02:48:45;;;;;;;17.37;11.23;;;;;;;;;;5034225;28;20213;-69
2022/01/10 02:51:13;;;;;;;16.13;11.07;;;;;;;;;;5017488;28;20549;-69
2022/01/10 02:53:40;;;;;;;15.40;9.97;;;;;;;;;;5034039;28;20217;-69
2022/01/10 02:56:09;;;;;;;16.23;9.87;;;;;;;;;;5033619;28;20212;-69
2022/01/10 02:58:38;;;;;;;16.17;10.67;;;;;;;;;;5033450;28;20244;-71
2022/01/10 03:01:05;;;;;;;17.93;11.73;;;;;;;;;;5033855;28;20303;-69
2022/01/10 03:03:34;;;;;;;18.70;11.70;;;;;;;;;;5033305;28;20679;-70
2022/01/10 03:06:01;;;;;;;19.50;12.30;;;;;;;;;;5034831;28;20217;-69
2022/01/10 03:08:30;;;;;;;19.33;12.17;;;;;;;;;;5033184;28;20675;-69
2022/01/10 03:11:02;;;;;;;21.10;12.90;;;;;;;;;;5033073;28;20240;-69
2022/01/10 03:13:29;;;;;;;21.37;13.57;;;;;;;;;;5033003;28;20699;-69
2022/01/10 03:15:56;;;;;;;24.20;15.67;;;;;;;;;;5034496;28;20219;-69
2022/01/10 03:18:24;;;;;;;26.37;15.93;;;;;;;;;;5033382;28;20213;-71
2022/01/10 03:20:51;;;;;;;27.93;16.33;;;;;;;;;;5033505;28;20216;-68
2022/01/10 03:23:18;;;;;;;27.90;16.90;;;;;;;;;;5034365;28;20244;-68
2022/01/10 03:25:46;;;;;;;28.27;16.43;;;;;;;;;;5034447;28;20215;-69
2022/01/10 03:28:15;;;;;;;29.40;16.93;;;;;;;;;;5033165;28;20217;-70
2022/01/10 03:30:43;;;;;;;27.23;16.13;;;;;;;;;;5033284;28;20200;-69
2022/01/10 03:33:14;;;;;;;30.67;18.60;;;;;;;;;;5033025;28;20721;-69
2022/01/10 03:35:42;;;;;;;30.40;17.43;;;;;;;;;;5034082;28;20240;-69
2022/01/10 03:38:13;;;;;;;30.70;17.23;;;;;;;;;;5032748;28;20205;-69
2022/01/10 03:40:40;;;;;;;27.43;15.97;;;;;;;;;;5034208;28;20218;-69
2022/01/10 03:43:13;;;;;;;28.23;16.67;;;;;;;;;;5032829;28;20354;-69
2022/01/10 03:45:41;;;;;;;33.00;18.57;;;;;;;;;;5033034;28;20267;-69
2022/01/10 03:48:08;;;;;;;32.23;18.53;;;;;;;;;;5032873;28;20223;-69
2022/01/10 03:50:35;;;;;;;32.47;18.07;;;;;;;;;;5033649;28;20235;-69
2022/01/10 03:53:03;;;;;;;32.00;18.20;;;;;;;;;;5032806;28;20205;-69
2022/01/10 03:55:30;;;;;;;33.90;18.97;;;;;;;;;;5033951;28;20267;-69
2022/01/10 03:58:01;;;;;;;30.17;17.97;;;;;;;;;;5032825;28;20260;-69
2022/01/10 04:00:28;;;;;;;31.37;16.57;;;;;;;;;;5032862;28;20223;-69
2022/01/10 04:03:03;;;;;;;30.93;18.40;;;;;;;;;;5033848;28;20255;-69
2022/01/10 04:05:45;;;;;;;30.80;19.53;;;;;;;;;;5032486;28;20201;-69
2022/01/10 04:08:14;;;;;;;29.60;18.07;;;;;;;;;;5032467;28;20219;-69
2022/01/10 04:10:42;;;;;;;30.87;18.43;;;;;;;;;;5033534;28;20251;-69
2022/01/10 04:13:10;;;;;;;31.57;19.27;;;;;;;;;;5032726;28;20216;-69
2022/01/10 04:15:39;;;;;;;32.43;19.13;;;;;;;;;;5032587;28;20224;-69
2022/01/10 04:18:07;;;;;;;32.37;19.43;;;;;;;;;;5033687;28;20212;-69
2022/01/10 04:20:41;;;;;;;33.53;19.73;;;;;;;;;;5032579;28;20197;-69
2022/01/10 04:23:09;;;;;;;35.87;20.57;;;;;;;;;;5016152;28;20286;-69
2022/01/10 04:25:37;;;;;;;60.57;29.37;;;;;;;;;;5016192;28;20219;-69
2022/01/10 04:28:04;;;;;;;43.07;22.53;;;;;;;;;;5032044;28;20208;-69
2022/01/10 04:30:32;;;;;;;78.17;34.23;;;;;;;;;;5033830;28;20279;-69
2022/01/10 04:33:01;;;;;;;60.83;28.67;;;;;;;;;;5031992;28;20239;-69
2022/01/10 04:35:29;;;;;;;41.93;21.60;;;;;;;;;;5032124;28;20217;-69
2022/01/10 04:37:57;;;;;;;45.43;21.40;;;;;;;;;;5033486;28;20642;-69
2022/01/10 04:40:25;;;;;;;32.43;18.77;;;;;;;;;;5032187;28;20267;-69
2022/01/10 04:42:54;;;;;;;34.53;19.03;;;;;;;;;;5032103;28;20244;-69
2022/01/10 04:45:21;;;;;;;31.13;18.17;;;;;;;;;;5032022;28;20220;-69
2022/01/10 04:47:49;;;;;;;31.47;18.57;;;;;;;;;;5032291;28;20215;-69
2022/01/10 04:52:50;;;;;;;30.57;19.23;;;;;;;;;;5032241;28;20240;-69
2022/01/10 04:55:18;;;;;;;40.90;21.87;;;;;;;;;;5032020;28;20240;-69
2022/01/10 04:57:46;;;;;;;56.80;27.27;;;;;;;;;;5032099;28;20286;-69
2022/01/10 05:00:15;;;;;;;43.00;22.37;;;;;;;;;;5031345;28;20295;-69
2022/01/10 05:02:47;;;;;;;31.90;19.00;;;;;;;;;;5040427;28;20323;-70
2022/01/10 05:05:14;;;;;;;32.10;18.20;;;;;;;;;;5047071;28;22757;-70
2022/01/10 05:07:42;;;;;;;28.40;16.90;;;;;;;;;;5048468;28;20236;-69
2022/01/10 05:10:10;;;;;;;35.03;20.10;;;;;;;;;;5058466;28;20330;-69
2022/01/10 05:12:41;;;;;;;30.27;17.80;;;;;;;;;;5060235;28;20770;-69
2022/01/10 05:15:09;;;;;;;27.87;16.80;;;;;;;;;;5055665;28;20240;-69
2022/01/10 05:17:36;;;;;;;32.03;18.67;;;;;;;;;;5060418;28;20243;-69
2022/01/10 05:20:05;;;;;;;27.70;16.67;;;;;;;;;;5069871;28;20239;-69
2022/01/10 05:22:33;;;;;;;28.50;16.77;;;;;;;;;;5076407;28;20775;-69
2022/01/10 05:25:00;;;;;;;26.20;15.43;;;;;;;;;;5076909;28;20235;-69
2022/01/10 05:27:30;;;;;;;27.77;16.73;;;;;;;;;;5059947;28;20232;-70
2022/01/10 05:30:01;;;;;;;28.47;17.00;;;;;;;;;;5054588;28;20235;-69
2022/01/10 05:32:28;;;;;;;28.07;17.03;;;;;;;;;;5054358;28;20270;-69
2022/01/10 05:35:18;;;;;;;30.73;17.77;;;;;;;;;;5056034;28;20587;-69
2022/01/10 05:37:46;;;;;;;30.57;17.77;;;;;;;;;;5055872;28;20250;-69
2022/01/10 05:40:15;;;;;;;27.97;17.50;;;;;;;;;;5056402;28;20232;-73
2022/01/10 05:42:42;;;;;;;28.40;15.63;;;;;;;;;;5054455;28;20977;-74
2022/01/10 05:45:10;;;;;;;29.20;16.67;;;;;;;;;;5072693;28;20239;-73
2022/01/10 05:47:42;;;;;;;28.90;17.47;;;;;;;;;;5055711;28;20267;-69
2022/01/10 05:50:12;;;;;;;22.40;14.57;;;;;;;;;;5039044;28;20242;-74
2022/01/10 05:52:44;;;;;;;27.90;16.67;;;;;;;;;;5054534;28;20562;-68
2022/01/10 05:55:11;;;;;;;26.43;16.57;;;;;;;;;;5055978;28;20236;-69
2022/01/10 05:57:43;;;;;;;33.13;19.27;;;;;;;;;;5054221;28;20702;-74
2022/01/10 06:00:12;;;;;;;33.47;17.70;;;;;;;;;;5054034;28;20247;-76
2022/01/10 06:02:42;;;;;;;29.30;17.20;;;;;;;;;;5055310;28;20290;-76
2022/01/10 06:05:30;;;;;;;25.37;16.17;;;;;;;;;;5055427;28;20654;-74
2022/01/10 06:08:04;;;;;;;26.37;17.20;;;;;;;;;;5053815;28;20558;-76
2022/01/10 06:10:33;;;;;;;28.97;17.17;;;;;;;;;;5053719;28;20576;-77
2022/01/10 06:13:13;;;;;;;27.33;16.10;;;;;;;;;;5054159;28;20273;-74
2022/01/10 06:15:42;;;;;;;19.77;13.43;;;;;;;;;;5045382;28;20232;-78
2022/01/10 06:18:10;;;;;;;16.90;10.47;;;;;;;;;;5027689;28;20590;-77
2022/01/10 06:20:38;;;;;;;18.13;11.70;;;;;;;;;;5050533;28;20318;-71
2022/01/10 06:23:35;;;;;;;21.53;13.70;;;;;;;;;;5036704;28;20248;-70
2022/01/10 06:26:08;;;;;;;18.17;12.10;;;;;;;;;;5034936;28;20632;-72
2022/01/10 06:28:36;;;;;;;17.57;11.33;;;;;;;;;;5033499;28;20695;-70
2022/01/10 06:31:05;;;;;;;17.17;11.90;;;;;;;;;;5034271;28;20315;-71
2022/01/10 06:33:42;;;;;;;21.60;13.77;;;;;;;;;;5052566;28;20223;-72
2022/01/10 06:36:10;;;;;;;26.17;15.03;;;;;;;;;;5054488;28;20208;-71
2022/01/10 06:38:41;;;;;;;19.87;12.23;;;;;;;;;;5038370;28;20204;-71
2022/01/10 06:41:09;;;;;;;20.30;13.27;;;;;;;;;;5053914;28;20212;-72
2022/01/10 06:43:39;;;;;;;20.13;12.93;;;;;;;;;;5053940;28;20270;-71
2022/01/10 06:46:09;;;;;;;25.20;15.20;;;;;;;;;;5053972;28;20599;-71
2022/01/10 06:48:37;;;;;;;23.60;15.07;;;;;;;;;;5054275;28;20208;-74
2022/01/10 06:51:04;;;;;;;25.33;15.37;;;;;;;;;;5054172;28;20338;-71
2022/01/10 06:53:32;;;;;;;27.83;16.33;;;;;;;;;;5054101;28;20219;-70
2022/01/10 06:56:02;;;;;;;25.47;17.73;;;;;;;;;;5053632;28;20270;-70
2022/01/10 06:58:31;;;;;;;28.93;16.17;;;;;;;;;;5053979;28;20200;-72
2022/01/10 07:01:00;;;;;;;28.47;16.63;;;;;;;;;;5053649;28;20629;-71
2022/01/10 07:03:28;;;;;;;30.17;19.50;;;;;;;;;;5053494;28;20699;-71
2022/01/10 07:06:06;;;;;;;36.40;19.00;;;;;;;;;;5053887;28;20250;-71
2022/01/10 07:08:34;;;;;;;35.67;18.77;;;;;;;;;;5053685;28;20208;-71
2022/01/10 07:11:06;;;;;;;27.10;17.00;;;;;;;;;;5053286;28;20297;-69
2022/01/10 07:13:35;;;;;;;28.83;18.23;;;;;;;;;;5053456;28;20573;-72
2022/01/10 07:16:05;;;;;;;26.17;15.97;;;;;;;;;;5053518;28;20207;-71
2022/01/10 07:18:34;;;;;;;24.40;14.70;;;;;;;;;;5053496;28;20247;-73
2022/01/10 07:21:10;;;;;;;23.60;13.43;;;;;;;;;;5053435;28;20204;-74
2022/01/10 07:23:37;;;;;;;15.07;8.10;;;;;;;;;;5053139;28;20695;-73
2022/01/10 07:26:04;;;;;;;25.47;15.40;;;;;;;;;;5056232;28;20208;-71
2022/01/10 07:28:32;;;;;;;25.60;14.83;;;;;;;;;;5054800;28;20219;-73
2022/01/10 07:30:59;;;;;;;29.63;18.03;;;;;;;;;;5054183;28;20697;-72
2022/01/10 07:33:27;;;;;;;68.67;31.67;;;;;;;;;;5054615;28;20236;-71
2022/01/10 07:36:00;;;;;;;66.07;29.03;;;;;;;;;;5053292;28;20203;-71
2022/01/10 07:38:27;;;;;;;35.63;18.20;;;;;;;;;;5054139;28;20208;-70
2022/01/10 07:40:55;;;;;;;26.20;16.10;;;;;;;;;;5053958;28;20258;-71
2022/01/10 07:43:22;;;;;;;25.70;15.07;;;;;;;;;;5053774;28;20413;-71
2022/01/10 07:45:55;;;;;;;24.20;13.90;;;;;;;;;;5052954;28;20204;-70
2022/01/10 07:48:23;;;;;;;21.17;13.73;;;;;;;;;;5054012;28;20520;-70
2022/01/10 07:50:50;;;;;;;20.80;12.50;;;;;;;;;;5054468;28;20247;-67
2022/01/10 07:53:17;;;;;;;19.63;12.50;;;;;;;;;;5053956;28;20669;-72
2022/01/10 07:55:45;;;;;;;24.60;13.20;;;;;;;;;;5053051;28;20266;-71
2022/01/10 07:58:13;;;;;;;22.47;13.67;;;;;;;;;;5053768;28;20720;-70
2022/01/10 08:00:42;;;;;;;21.13;12.67;;;;;;;;;;5054026;28;20219;-72
2022/01/10 08:03:10;;;;;;;21.13;13.03;;;;;;;;;;5053647;28;20321;-71
2022/01/10 08:05:38;;;;;;;22.57;13.37;;;;;;;;;;5053875;28;20212;-73
2022/01/10 08:08:05;;;;;;;20.43;12.70;;;;;;;;;;5053870;28;20212;-73
2022/01/10 08:10:32;;;;;;;21.53;13.47;;;;;;;;;;5053850;28;20235;-70
2022/01/10 08:12:59;;;;;;;18.53;12.20;;;;;;;;;;5052769;28;20208;-71
2022/01/10 08:15:27;;;;;;;13.87;8.23;;;;;;;;;;5054106;28;20212;-70
2022/01/10 08:17:54;;;;;;;16.20;10.70;;;;;;;;;;5053699;28;20617;-71
2022/01/10 08:20:22;;;;;;;16.03;10.17;;;;;;;;;;5053862;28;20215;-70
2022/01/10 08:22:49;;;;;;;19.67;12.67;;;;;;;;;;5053464;28;20228;-71
2022/01/10 08:25:16;;;;;;;16.77;10.87;;;;;;;;;;5053815;28;20212;-70
2022/01/10 08:27:44;;;;;;;16.80;9.93;;;;;;;;;;5053680;28;20212;-70
2022/01/10 08:30:11;;;;;;;15.67;10.47;;;;;;;;;;5052388;28;20215;-71
2022/01/10 08:32:38;;;;;;;18.50;12.03;;;;;;;;;;5053494;28;20740;-70
2022/01/10 08:35:07;;;;;;;16.13;10.10;;;;;;;;;;5053556;28;20215;-71
2022/01/10 08:37:34;;;;;;;17.33;10.60;;;;;;;;;;5053616;28;20219;-72
2022/01/10 08:40:03;;;;;;;18.90;8.70;;;;;;;;;;5053388;28;20243;-71
2022/01/10 08:42:31;;;;;;;16.03;10.13;;;;;;;;;;5052221;28;20709;-72
2022/01/10 08:44:58;;;;;;;14.90;8.30;;;;;;;;;;5053714;28;20609;-73
2022/01/10 08:47:27;;;;;;;15.67;9.13;;;;;;;;;;5053374;28;20642;-73
2022/01/10 08:49:55;;;;;;;17.17;10.00;;;;;;;;;;5053801;28;20216;-73
2022/01/10 08:52:22;;;;;;;15.90;9.80;;;;;;;;;;5055541;28;20212;-73
2022/01/10 08:54:49;;;;;;;21.37;12.20;;;;;;;;;;5056059;28;20212;-72
2022/01/10 08:57:17;;;;;;;17.13;10.67;;;;;;;;;;5057242;28;20208;-72
2022/01/10 08:59:45;;;;;;;13.57;8.57;;;;;;;;;;5057259;28;20699;-73
2022/01/10 09:02:13;;;;;;;13.73;8.40;;;;;;;;;;5057135;28;20302;-73
2022/01/10 09:04:41;;;;;;;14.00;8.27;;;;;;;;;;5057089;28;20239;-72
2022/01/10 09:07:09;;;;;;;13.13;7.97;;;;;;;;;;5057173;28;20281;-72
2022/01/10 09:09:37;;;;;;;12.73;7.60;;;;;;;;;;5057134;28;20216;-71
2022/01/10 09:12:05;;;;;;;13.40;9.30;;;;;;;;;;5057045;28;20546;-71
2022/01/10 09:14:32;;;;;;;15.87;9.10;;;;;;;;;;5057045;28;20237;-73
2022/01/10 09:17:00;;;;;;;12.47;7.47;;;;;;;;;;5056892;28;20693;-71
2022/01/10 09:19:27;;;;;;;13.37;8.83;;;;;;;;;;5056896;28;20653;-71
2022/01/10 09:21:54;;;;;;;14.37;7.33;;;;;;;;;;5055998;28;20219;-71
2022/01/10 09:24:22;;;;;;;11.07;6.27;;;;;;;;;;5056970;28;20246;-71
2022/01/10 09:26:49;;;;;;;12.03;7.70;;;;;;;;;;5057536;28;20568;-71
2022/01/10 09:29:16;;;;;;;10.13;6.93;;;;;;;;;;5056595;28;20639;-71
2022/01/10 09:31:45;;;;;;;12.87;7.43;;;;;;;;;;5056626;28;20224;-70
2022/01/10 09:34:12;;;;;;;13.67;8.03;;;;;;;;;;5056810;28;20215;-70
2022/01/10 09:36:40;;;;;;;14.43;8.63;;;;;;;;;;5056769;28;20258;-71
2022/01/10 09:39:09;;;;;;;11.97;7.37;;;;;;;;;;5056410;28;20214;-71
2022/01/10 09:41:36;;;;;;;9.00;5.73;;;;;;;;;;5055412;28;20297;-72
2022/01/10 09:44:06;;;;;;;12.10;7.87;;;;;;;;;;5056326;28;20239;-71
2022/01/10 09:46:35;;;;;;;9.87;7.33;;;;;;;;;;5056648;28;20204;-70
2022/01/10 09:49:03;;;;;;;10.90;6.87;;;;;;;;;;5056509;28;20215;-71
2022/01/10 09:51:32;;;;;;;10.63;6.77;;;;;;;;;;5056238;28;20686;-68
2022/01/10 09:54:01;;;;;;;13.60;6.90;;;;;;;;;;5056361;28;20208;-68
2022/01/10 09:56:29;;;;;;;12.67;7.57;;;;;;;;;;5055250;28;20219;-71
2022/01/10 09:58:58;;;;;;;9.87;7.13;;;;;;;;;;5038867;28;20203;-71
2022/01/10 10:01:27;;;;;;;13.37;8.03;;;;;;;;;;5038545;28;20208;-71
2022/01/10 10:03:58;;;;;;;12.30;7.67;;;;;;;;;;5055613;28;20240;-71
2022/01/10 10:06:28;;;;;;;12.63;6.90;;;;;;;;;;5039142;28;20196;-71
2022/01/10 10:08:58;;;;;;;8.70;6.20;;;;;;;;;;5055774;28;20651;-71
2022/01/10 10:11:42;;;;;;;12.80;6.90;;;;;;;;;;5055909;28;20293;-72
2022/01/10 10:14:12;;;;;;;11.90;7.30;;;;;;;;;;5054781;28;20647;-72
2022/01/10 10:16:46;;;;;;;11.23;7.17;;;;;;;;;;5055543;28;20693;-72
2022/01/10 10:19:14;;;;;;;9.23;6.53;;;;;;;;;;5055976;28;20196;-71
2022/01/10 10:21:42;;;;;;;9.80;6.20;;;;;;;;;;5054661;28;20215;-72
2022/01/10 10:24:09;;;;;;;8.83;6.17;;;;;;;;;;5055351;28;20725;-72
2022/01/10 10:26:36;;;;;;;12.87;6.67;;;;;;;;;;5055835;28;20239;-71
2022/01/10 10:29:04;;;;;;;12.97;6.90;;;;;;;;;;5055613;28;20245;-71
2022/01/10 10:31:34;;;;;;;16.33;7.83;;;;;;;;;;5055693;28;20216;-72
2022/01/10 10:34:04;;;;;;;13.93;7.83;;;;;;;;;;5055932;28;20239;-71
2022/01/10 10:36:35;;;;;;;10.03;6.70;;;;;;;;;;5054742;28;20204;-72
2022/01/10 10:39:10;;;;;;;8.60;5.63;;;;;;;;;;5055556;28;20215;-71
2022/01/10 10:41:38;;;;;;;9.07;4.53;;;;;;;;;;5054068;28;20211;-72
2022/01/10 10:44:06;;;;;;;14.10;7.03;;;;;;;;;;5055458;28;20314;-71
2022/01/10 10:46:36;;;;;;;10.07;6.00;;;;;;;;;;5073403;28;20273;-72
2022/01/10 10:49:04;;;;;;;11.90;7.03;;;;;;;;;;5069389;28;20261;-72
2022/01/10 10:51:36;;;;;;;11.80;7.23;;;;;;;;;;5054248;28;20212;-71
2022/01/10 10:54:12;;;;;;;13.03;7.87;;;;;;;;;;5055445;28;20206;-72
2022/01/10 10:56:41;;;;;;;11.10;7.10;;;;;;;;;;5053730;28;20535;-71
2022/01/10 10:59:08;;;;;;;7.47;4.53;;;;;;;;;;5055221;28;20208;-72
2022/01/10 11:01:36;;;;;;;15.53;7.83;;;;;;;;;;5070817;28;20264;-71
2022/01/10 11:04:05;;;;;;;13.23;6.93;;;;;;;;;;5074849;28;20560;-72
2022/01/10 11:06:34;;;;;;;13.57;6.37;;;;;;;;;;5073637;28;20654;-72
2022/01/10 11:09:09;;;;;;;12.57;7.13;;;;;;;;;;5075162;28;20239;-72
2022/01/10 11:11:36;;;;;;;12.47;6.70;;;;;;;;;;5074551;28;20235;-72
2022/01/10 11:14:04;;;;;;;14.13;7.87;;;;;;;;;;5073598;28;20294;-70
2022/01/10 11:16:36;;;;;;;9.00;5.03;;;;;;;;;;5073531;28;20294;-70
2022/01/10 11:19:13;;;;;;;7.67;4.57;;;;;;;;;;5070641;28;20208;-72
2022/01/10 11:21:45;;;;;;;10.60;6.03;;;;;;;;;;5054981;28;20200;-71
2022/01/10 11:24:48;;;;;;;12.80;8.23;;;;;;;;;;5054800;28;20308;-71
2022/01/10 11:27:30;;;;;;;12.43;7.17;;;;;;;;;;5055274;28;20200;-71
2022/01/10 11:29:59;;;;;;;13.67;6.97;;;;;;;;;;5054776;28;20200;-71
2022/01/10 11:33:01;;;;;;;12.63;7.60;;;;;;;;;;5054383;28;20242;-71
2022/01/10 11:35:50;;;;;;;9.97;6.57;;;;;;;;;;5054468;28;20203;-71
2022/01/10 11:38:23;;;;;;;13.37;7.20;;;;;;;;;;5053374;28;20200;-72
2022/01/10 11:40:59;;;;;;;11.30;6.57;;;;;;;;;;5054484;28;20202;-72
2022/01/10 11:43:41;;;;;;;13.60;8.03;;;;;;;;;;5054053;28;20644;-72
2022/01/10 11:46:24;;;;;;;16.13;7.30;;;;;;;;;;5054123;28;20203;-72
2022/01/10 11:49:08;;;;;;;13.10;7.60;;;;;;;;;;5053303;28;20250;-71
2022/01/10 11:51:38;;;;;;;12.47;7.03;;;;;;;;;;5049069;28;20219;-71
2022/01/10 11:54:18;;;;;;;12.63;7.27;;;;;;;;;;5044754;28;20200;-74
2022/01/10 11:57:06;;;;;;;14.73;7.17;;;;;;;;;;5044967;28;20769;-72
2022/01/10 11:59:56;;;;;;;11.43;7.23;;;;;;;;;;5044939;28;20208;-71
2022/01/10 12:02:33;;;;;;;12.27;6.93;;;;;;;;;;5043669;28;20263;-72
2022/01/10 12:05:22;;;;;;;10.10;5.80;;;;;;;;;;5035211;28;20231;-73
2022/01/10 12:07:51;;;;;;;13.30;6.90;;;;;;;;;;5043502;28;20204;-72
2022/01/10 12:10:26;;;;;;;13.47;7.93;;;;;;;;;;5042622;28;20667;-72
2022/01/10 12:13:02;;;;;;;13.03;6.40;;;;;;;;;;5040167;28;20213;-73
2022/01/10 12:15:31;;;;;;;14.03;7.63;;;;;;;;;;5041304;28;20211;-73
2022/01/10 12:17:59;;;;;;;8.13;4.77;;;;;;;;;;5045647;28;20239;-73
2022/01/10 12:20:26;;;;;;;8.87;5.23;;;;;;;;;;5038184;28;20220;-73
2022/01/10 12:22:54;;;;;;;11.63;6.63;;;;;;;;;;5041630;28;20742;-73
2022/01/10 12:25:22;;;;;;;9.73;5.47;;;;;;;;;;5033968;28;20244;-73
2022/01/10 12:27:53;;;;;;;13.63;5.57;;;;;;;;;;5036263;28;20236;-73
2022/01/10 12:30:21;;;;;;;12.80;6.27;;;;;;;;;;5036862;28;20220;-73
2022/01/10 12:32:49;;;;;;;11.20;6.07;;;;;;;;;;5043846;28;20294;-72
2022/01/10 12:35:16;;;;;;;14.00;7.07;;;;;;;;;;5036708;28;20299;-73
2022/01/10 12:37:44;;;;;;;10.87;7.30;;;;;;;;;;5035802;28;20270;-73
2022/01/10 12:40:14;;;;;;;12.90;7.07;;;;;;;;;;5036710;28;20216;-73
2022/01/10 12:42:47;;;;;;;14.97;8.43;;;;;;;;;;5040432;28;20208;-73
2022/01/10 12:45:14;;;;;;;16.30;8.67;;;;;;;;;;5036670;28;20232;-73
2022/01/10 12:47:45;;;;;;;17.10;9.07;;;;;;;;;;5037170;28;20217;-72
2022/01/10 12:50:12;;;;;;;13.37;7.47;;;;;;;;;;5035820;28;20209;-73
2022/01/10 12:52:42;;;;;;;12.93;8.17;;;;;;;;;;5039858;28;20746;-73
2022/01/10 12:55:09;;;;;;;11.53;6.50;;;;;;;;;;5037364;28;20301;-72
2022/01/10 12:57:36;;;;;;;11.77;6.97;;;;;;;;;;5035806;28;20212;-73
2022/01/10 13:00:06;;;;;;;17.60;8.47;;;;;;;;;;5036821;28;20557;-73
2022/01/10 13:02:34;;;;;;;16.80;8.97;;;;;;;;;;5042491;28;20299;-72
2022/01/10 13:05:11;;;;;;;18.57;9.43;;;;;;;;;;5037415;28;20231;-73
2022/01/10 13:07:38;;;;;;;15.67;8.87;;;;;;;;;;5043248;28;20315;-73
2022/01/10 13:10:08;;;;;;;19.20;9.63;;;;;;;;;;5046896;28;20279;-73
2022/01/10 13:12:36;;;;;;;16.93;9.23;;;;;;;;;;5037433;28;20219;-72
2022/01/10 13:15:14;;;;;;;20.60;10.77;;;;;;;;;;5035599;28;20693;-73
2022/01/10 13:17:54;;;;;;;18.03;9.97;;;;;;;;;;5045714;28;20339;-73
2022/01/10 13:20:23;;;;;;;17.33;8.33;;;;;;;;;;5035989;28;20595;-74
2022/01/10 13:23:06;;;;;;;20.37;10.67;;;;;;;;;;5035466;28;20784;-73
2022/01/10 13:25:45;;;;;;;19.17;9.83;;;;;;;;;;5048372;28;20754;-73
2022/01/10 13:28:14;;;;;;;14.57;8.27;;;;;;;;;;5042570;28;20672;-72
2022/01/10 13:30:55;;;;;;;12.53;7.40;;;;;;;;;;5041258;28;20208;-72
2022/01/10 13:33:37;;;;;;;18.80;10.00;;;;;;;;;;5055477;28;20204;-74
2022/01/10 13:36:04;;;;;;;15.83;8.40;;;;;;;;;;5055235;28;20682;-72
2022/01/10 13:38:32;;;;;;;15.17;8.70;;;;;;;;;;5048202;28;20239;-72
2022/01/10 13:41:00;;;;;;;14.20;8.17;;;;;;;;;;5043220;28;20618;-72
2022/01/10 13:43:31;;;;;;;15.70;8.47;;;;;;;;;;5042142;28;20243;-72
2022/01/10 13:46:03;;;;;;;20.73;11.43;;;;;;;;;;5043741;28;20240;-72
2022/01/10 13:48:39;;;;;;;14.37;8.23;;;;;;;;;;5030977;28;20639;-72
2022/01/10 13:51:21;;;;;;;13.67;8.13;;;;;;;;;;5048018;28;20264;-70
2022/01/10 13:53:51;;;;;;;16.87;9.17;;;;;;;;;;5047842;28;20235;-70
2022/01/10 13:56:30;;;;;;;17.77;9.27;;;;;;;;;;5055736;28;20232;-71
2022/01/10 13:59:00;;;;;;;20.17;10.20;;;;;;;;;;5055954;28;20262;-70
2022/01/10 14:01:40;;;;;;;18.43;10.27;;;;;;;;;;5054732;28;20236;-76
2022/01/10 14:04:30;;;;;;;18.83;10.57;;;;;;;;;;5055308;28;20718;-74
2022/01/10 14:07:08;;;;;;;20.70;11.77;;;;;;;;;;5054073;28;20236;-69
2022/01/10 14:09:36;;;;;;;15.83;9.37;;;;;;;;;;5055271;28;20236;-70
2022/01/10 14:12:06;;;;;;;25.43;12.57;;;;;;;;;;5055670;28;20251;-74
2022/01/10 14:14:33;;;;;;;21.13;11.67;;;;;;;;;;5054599;28;20236;-69
2022/01/10 14:17:01;;;;;;;19.53;11.10;;;;;;;;;;5055682;28;20236;-72
2022/01/10 14:19:34;;;;;;;16.97;10.10;;;;;;;;;;5054050;28;20232;-71
2022/01/10 14:22:01;;;;;;;19.13;11.10;;;;;;;;;;5054952;28;20240;-72
2022/01/10 14:24:30;;;;;;;20.20;11.40;;;;;;;;;;5036841;28;20243;-73
2022/01/10 14:26:57;;;;;;;23.33;12.43;;;;;;;;;;5035299;28;20290;-73
2022/01/10 14:29:25;;;;;;;22.70;12.47;;;;;;;;;;5034316;28;20694;-69
2022/01/10 14:31:52;;;;;;;22.07;13.17;;;;;;;;;;5035335;28;20263;-75
2022/01/10 14:34:20;;;;;;;21.00;11.77;;;;;;;;;;5034171;28;20241;-76
2022/01/10 14:36:47;;;;;;;23.23;12.50;;;;;;;;;;5034685;28;20235;-71
2022/01/10 14:39:15;;;;;;;19.23;11.03;;;;;;;;;;5034031;28;20233;-76
2022/01/10 14:41:43;;;;;;;19.67;11.50;;;;;;;;;;5035407;28;20309;-73
2022/01/10 14:44:10;;;;;;;20.53;11.20;;;;;;;;;;5050668;28;20259;-70
2022/01/10 14:46:37;;;;;;;23.33;11.30;;;;;;;;;;5047406;28;20705;-70
2022/01/10 14:49:05;;;;;;;16.70;11.10;;;;;;;;;;5042778;28;20243;-69
2022/01/10 14:51:32;;;;;;;19.33;11.13;;;;;;;;;;5044316;28;20240;-70
2022/01/10 14:53:59;;;;;;;20.00;11.77;;;;;;;;;;5043308;28;20232;-70
2022/01/10 14:56:26;;;;;;;22.63;12.17;;;;;;;;;;5044824;28;20239;-70